createdAt,value
2023-01-31T00:01:52.650Z,6.90
2023-01-31T00:04:19.705Z,6.90
2023-01-31T00:06:51.541Z,6.90
2023-01-31T00:09:18.982Z,6.90
2023-01-31T00:11:46.045Z,7.00
2023-01-31T00:14:19.240Z,6.90
2023-01-31T00:16:46.845Z,7.00
2023-01-31T00:19:13.880Z,7.00
2023-01-31T00:21:43.777Z,7.00
2023-01-31T00:24:13.810Z,7.00
2023-01-31T00:26:40.887Z,7.00
2023-01-31T00:29:09.223Z,7.00
2023-01-31T00:31:37.923Z,7.00
2023-01-31T00:34:05.676Z,7.00
2023-01-31T00:36:35.004Z,7.00
2023-01-31T00:39:04.763Z,6.90
2023-01-31T00:41:32.836Z,6.90
2023-01-31T00:44:00.513Z,6.90
2023-01-31T00:46:28.202Z,6.90
2023-01-31T00:48:56.372Z,6.90
2023-01-31T00:51:26.508Z,6.90
2023-01-31T00:53:54.436Z,6.90
2023-01-31T00:56:24.001Z,6.90
2023-01-31T00:58:51.543Z,6.90
2023-01-31T01:01:29.912Z,6.80
2023-01-31T01:03:58.124Z,6.80
2023-01-31T01:06:26.180Z,6.80
2023-01-31T01:08:54.198Z,6.80
2023-01-31T01:11:28.398Z,6.80
2023-01-31T01:13:56.435Z,6.80
2023-01-31T01:16:26.515Z,6.80
2023-01-31T01:18:57.531Z,6.80
2023-01-31T01:21:27.068Z,6.80
2023-01-31T01:23:58.287Z,6.80
2023-01-31T01:26:35.036Z,6.80
2023-01-31T01:29:04.775Z,6.80
2023-01-31T01:31:32.604Z,6.80
2023-01-31T01:34:06.098Z,6.70
2023-01-31T01:36:37.518Z,6.80
2023-01-31T01:39:06.960Z,6.80
2023-01-31T01:41:34.167Z,6.80
2023-01-31T01:44:03.896Z,6.80
2023-01-31T01:46:39.290Z,6.80
2023-01-31T01:49:29.356Z,6.80
2023-01-31T01:52:00.887Z,6.80
2023-01-31T01:54:36.634Z,6.90
2023-01-31T01:57:06.183Z,6.90
2023-01-31T01:59:53.136Z,6.90
2023-01-31T02:02:20.546Z,6.90
2023-01-31T02:04:50.886Z,6.90
2023-01-31T02:07:18.319Z,7.00
2023-01-31T02:09:51.319Z,6.90
2023-01-31T02:12:20.979Z,6.90
2023-01-31T02:14:49.564Z,7.00
2023-01-31T02:17:19.917Z,7.00
2023-01-31T02:19:50.152Z,7.00
2023-01-31T02:22:49.567Z,7.00
2023-01-31T02:25:41.278Z,7.00
2023-01-31T02:28:18.098Z,7.00
2023-01-31T02:31:04.147Z,7.00
2023-01-31T02:33:52.690Z,7.10
2023-01-31T02:36:44.820Z,7.10
2023-01-31T02:39:24.346Z,7.10
2023-01-31T02:42:05.893Z,7.10
2023-01-31T02:45:00.721Z,7.20
2023-01-31T02:47:40.598Z,7.20
2023-01-31T02:50:26.066Z,7.30
2023-01-31T02:53:05.074Z,7.30
2023-01-31T02:56:08.756Z,7.30
2023-01-31T02:58:39.227Z,7.30
2023-01-31T03:01:10.378Z,7.30
2023-01-31T03:03:41.173Z,7.40
2023-01-31T03:06:09.747Z,7.40
2023-01-31T03:08:40.103Z,7.40
2023-01-31T03:11:08.582Z,7.40
2023-01-31T03:13:35.582Z,7.50
2023-01-31T03:16:27.054Z,7.50
2023-01-31T03:19:21.662Z,7.50
2023-01-31T03:21:58.365Z,7.50
2023-01-31T03:24:30.266Z,7.50
2023-01-31T03:27:01.253Z,7.50
2023-01-31T03:29:30.927Z,7.50
2023-01-31T03:32:24.708Z,7.50
2023-01-31T03:34:53.371Z,7.50
2023-01-31T03:37:34.939Z,7.50
2023-01-31T03:40:17.566Z,7.50
2023-01-31T03:42:59.697Z,7.50
2023-01-31T03:45:36.539Z,7.50
2023-01-31T03:48:08.073Z,7.50
2023-01-31T03:50:41.973Z,7.50
2023-01-31T03:53:24.497Z,7.50
2023-01-31T03:55:57.300Z,7.50
2023-01-31T03:58:29.296Z,7.60
2023-01-31T04:01:01.285Z,7.60
2023-01-31T04:03:35.973Z,7.60
2023-01-31T04:06:03.306Z,7.60
2023-01-31T04:08:33.302Z,7.60
2023-01-31T04:11:13.239Z,7.60
2023-01-31T04:13:41.236Z,7.60
2023-01-31T04:16:08.733Z,7.70
2023-01-31T04:18:37.781Z,7.70
2023-01-31T04:21:05.983Z,7.70
2023-01-31T04:23:33.457Z,7.70
2023-01-31T04:26:00.453Z,7.70
2023-01-31T04:28:27.817Z,7.70
2023-01-31T04:30:56.966Z,7.70
2023-01-31T04:33:24.134Z,9.10
2023-01-31T04:35:52.232Z,7.80
2023-01-31T04:38:19.445Z,7.80
2023-01-31T04:40:46.477Z,7.80
2023-01-31T04:43:14.272Z,7.80
2023-01-31T04:45:41.301Z,7.80
2023-01-31T04:48:08.950Z,7.80
2023-01-31T04:50:36.577Z,7.90
2023-01-31T04:53:04.844Z,7.90
2023-01-31T04:55:32.037Z,7.90
2023-01-31T04:57:59.077Z,7.90
2023-01-31T05:00:26.115Z,7.90
2023-01-31T05:02:53.761Z,7.90
2023-01-31T05:05:21.493Z,8.00
2023-01-31T05:07:48.659Z,8.00
2023-01-31T05:10:16.314Z,8.00
2023-01-31T05:12:43.435Z,8.00
2023-01-31T05:15:11.850Z,8.00
2023-01-31T05:17:39.259Z,8.00
2023-01-31T05:20:06.886Z,8.00
2023-01-31T05:22:34.189Z,8.00
2023-01-31T05:25:01.383Z,8.00
2023-01-31T05:27:28.454Z,8.10
2023-01-31T05:29:58.576Z,8.00
2023-01-31T05:32:28.756Z,8.10
2023-01-31T05:34:55.706Z,8.10
2023-01-31T05:37:24.415Z,8.10
2023-01-31T05:39:51.319Z,8.10
2023-01-31T05:42:18.337Z,8.10
2023-01-31T05:44:47.702Z,8.10
2023-01-31T05:47:14.680Z,8.10
2023-01-31T05:49:41.687Z,8.10
2023-01-31T05:52:08.720Z,8.20
2023-01-31T05:54:35.794Z,8.20
2023-01-31T05:57:02.822Z,8.20
2023-01-31T05:59:31.360Z,8.20
2023-01-31T06:01:58.338Z,8.20
2023-01-31T06:04:25.359Z,8.20
2023-01-31T06:06:52.406Z,8.30
2023-01-31T06:09:19.386Z,8.30
2023-01-31T06:11:46.440Z,8.30
2023-01-31T06:14:13.499Z,8.30
2023-01-31T06:16:40.562Z,8.30
2023-01-31T06:19:07.803Z,8.30
2023-01-31T06:21:35.167Z,8.30
2023-01-31T06:24:02.201Z,8.30
2023-01-31T06:26:29.276Z,8.30
2023-01-31T06:28:56.621Z,8.30
2023-01-31T06:31:23.902Z,8.30
2023-01-31T06:33:51.117Z,8.20
2023-01-31T06:36:19.435Z,8.20
2023-01-31T06:38:53.024Z,8.20
2023-01-31T06:41:20.927Z,8.20
2023-01-31T06:43:48.330Z,8.20
2023-01-31T06:46:17.991Z,8.20
2023-01-31T06:48:45.080Z,8.20
2023-01-31T06:51:12.088Z,8.20
2023-01-31T06:53:39.149Z,8.20
2023-01-31T06:56:06.964Z,8.20
2023-01-31T06:58:34.176Z,8.20
2023-01-31T07:01:10.127Z,8.20
2023-01-31T07:03:37.267Z,8.20
2023-01-31T07:06:04.683Z,8.20
2023-01-31T07:08:35.353Z,8.20
2023-01-31T07:11:03.871Z,8.20
2023-01-31T07:13:31.430Z,8.20
2023-01-31T07:15:58.551Z,8.20
2023-01-31T07:18:25.611Z,8.20
2023-01-31T07:20:52.728Z,8.20
2023-01-31T07:23:19.729Z,8.20
2023-01-31T07:25:46.748Z,8.20
2023-01-31T07:28:13.791Z,8.20
2023-01-31T07:30:44.857Z,8.20
2023-01-31T07:33:12.179Z,8.20
2023-01-31T07:35:39.244Z,8.20
2023-01-31T07:38:06.213Z,8.20
2023-01-31T07:40:35.516Z,8.30
2023-01-31T07:43:02.527Z,8.30
2023-01-31T07:45:29.697Z,8.30
2023-01-31T07:47:59.358Z,8.30
2023-01-31T07:50:27.865Z,8.30
2023-01-31T07:52:54.961Z,8.40
2023-01-31T07:55:22.303Z,8.40
2023-01-31T07:57:49.502Z,8.40
2023-01-31T08:00:35.411Z,8.40
2023-01-31T08:03:21.002Z,8.40
2023-01-31T08:05:48.268Z,8.50
2023-01-31T08:08:15.334Z,8.50
2023-01-31T08:10:42.353Z,8.50
2023-01-31T08:13:11.895Z,8.50
2023-01-31T08:15:38.908Z,8.40
2023-01-31T08:18:06.515Z,8.40
2023-01-31T08:20:34.095Z,8.30
2023-01-31T08:23:01.244Z,8.30
2023-01-31T08:25:32.019Z,8.20
2023-01-31T08:28:00.400Z,8.20
2023-01-31T08:30:28.806Z,8.10
2023-01-31T08:32:56.739Z,8.10
2023-01-31T08:35:26.369Z,8.10
2023-01-31T08:37:56.759Z,8.00
2023-01-31T08:40:27.935Z,8.00
2023-01-31T08:43:00.512Z,7.90
2023-01-31T08:45:30.616Z,7.90
2023-01-31T08:47:59.637Z,7.90
2023-01-31T08:50:29.067Z,7.90
2023-01-31T08:52:57.856Z,7.80
2023-01-31T08:55:24.909Z,7.80
2023-01-31T08:57:59.838Z,7.80
2023-01-31T09:00:28.136Z,7.80
2023-01-31T09:02:57.767Z,7.70
2023-01-31T09:05:30.004Z,7.70
2023-01-31T09:07:57.501Z,7.70
2023-01-31T09:10:24.979Z,7.70
2023-01-31T09:12:52.013Z,7.70
2023-01-31T09:15:19.512Z,7.60
2023-01-31T09:17:46.585Z,7.60
2023-01-31T09:20:13.650Z,7.70
2023-01-31T09:22:40.590Z,7.70
2023-01-31T09:25:08.332Z,7.60
2023-01-31T09:27:36.739Z,7.60
2023-01-31T09:30:07.579Z,7.60
2023-01-31T09:32:34.842Z,7.60
2023-01-31T09:35:01.823Z,7.60
2023-01-31T09:37:33.324Z,7.60
2023-01-31T09:40:00.359Z,7.60
2023-01-31T09:42:33.974Z,7.60
2023-01-31T09:45:10.314Z,7.60
2023-01-31T09:47:40.646Z,7.60
2023-01-31T09:50:20.665Z,7.60
2023-01-31T09:52:48.348Z,7.60
2023-01-31T09:55:39.775Z,7.60
2023-01-31T09:58:27.101Z,7.60
2023-01-31T10:01:14.184Z,7.60
2023-01-31T10:03:52.038Z,7.60
2023-01-31T10:06:30.661Z,7.60
2023-01-31T10:09:35.980Z,7.60
2023-01-31T10:12:11.933Z,7.60
2023-01-31T10:15:01.549Z,7.60
2023-01-31T10:17:34.555Z,7.60
2023-01-31T10:20:17.783Z,7.60
2023-01-31T10:23:07.674Z,7.60
2023-01-31T10:25:59.808Z,7.60
2023-01-31T10:28:38.933Z,7.60
2023-01-31T10:31:05.993Z,7.60
2023-01-31T10:33:50.389Z,7.60
2023-01-31T10:36:40.358Z,7.60
2023-01-31T10:39:13.181Z,7.60
2023-01-31T10:42:00.332Z,7.60
2023-01-31T10:44:52.038Z,7.60
2023-01-31T10:47:22.384Z,7.60
2023-01-31T10:49:50.759Z,7.60
2023-01-31T10:52:53.326Z,7.70
2023-01-31T10:55:33.421Z,7.70
2023-01-31T10:58:00.513Z,7.80
2023-01-31T11:00:30.550Z,8.00
2023-01-31T11:02:58.697Z,8.10
2023-01-31T11:05:28.830Z,8.20
2023-01-31T11:08:01.237Z,8.30
2023-01-31T11:10:31.322Z,8.30
2023-01-31T11:13:09.693Z,8.30
2023-01-31T11:15:39.163Z,8.30
2023-01-31T11:18:07.282Z,8.30
2023-01-31T11:20:44.511Z,8.30
2023-01-31T11:23:17.439Z,8.30
2023-01-31T11:25:50.229Z,8.30
2023-01-31T11:28:24.194Z,8.30
2023-01-31T11:30:54.137Z,8.30
2023-01-31T11:33:45.251Z,8.30
2023-01-31T11:36:17.669Z,8.30
2023-01-31T11:38:44.706Z,8.40
2023-01-31T11:41:29.102Z,8.50
2023-01-31T11:44:11.509Z,8.40
2023-01-31T11:46:55.293Z,8.50
2023-01-31T11:49:34.678Z,8.50
2023-01-31T11:52:15.627Z,8.50
2023-01-31T11:54:48.190Z,8.50
2023-01-31T11:57:24.422Z,8.50
2023-01-31T11:59:55.100Z,8.50
2023-01-31T12:02:35.238Z,8.60
2023-01-31T12:05:09.303Z,8.60
2023-01-31T12:07:46.939Z,8.60
2023-01-31T12:10:36.839Z,8.70
2023-01-31T12:13:18.826Z,8.70
2023-01-31T12:16:04.302Z,8.70
2023-01-31T12:18:59.571Z,8.80
2023-01-31T12:21:53.103Z,8.80
2023-01-31T12:24:40.311Z,8.70
2023-01-31T12:27:28.920Z,8.70
2023-01-31T12:30:31.691Z,8.70
2023-01-31T12:33:15.389Z,8.70
2023-01-31T12:35:51.249Z,8.60
2023-01-31T12:38:44.227Z,8.60
2023-01-31T12:41:16.966Z,8.60
2023-01-31T12:44:02.883Z,8.60
2023-01-31T12:47:14.287Z,8.60
2023-01-31T12:49:41.187Z,8.60
2023-01-31T12:52:44.404Z,8.50
2023-01-31T12:55:21.044Z,8.50
2023-01-31T12:57:54.341Z,8.40
2023-01-31T13:00:40.397Z,8.30
2023-01-31T13:03:26.947Z,8.20
2023-01-31T13:06:03.460Z,8.10
2023-01-31T13:08:33.409Z,8.00
2023-01-31T13:11:12.337Z,7.90
2023-01-31T13:13:46.069Z,7.90
2023-01-31T13:16:20.252Z,7.80
2023-01-31T13:18:50.908Z,7.80
2023-01-31T13:21:30.529Z,7.70
2023-01-31T13:24:09.180Z,7.70
2023-01-31T13:26:45.253Z,7.70
2023-01-31T13:29:37.121Z,7.60
2023-01-31T13:32:31.618Z,7.60
2023-01-31T13:35:24.718Z,7.50
2023-01-31T13:37:58.197Z,7.50
2023-01-31T13:40:29.373Z,7.50
2023-01-31T13:43:02.562Z,7.50
2023-01-31T13:45:37.544Z,7.50
2023-01-31T13:48:17.378Z,7.50
2023-01-31T13:51:05.188Z,7.50
2023-01-31T13:53:37.056Z,7.50
2023-01-31T13:56:09.182Z,7.50
2023-01-31T13:58:37.261Z,7.50
2023-01-31T14:01:19.295Z,7.40
2023-01-31T14:04:11.342Z,7.50
2023-01-31T14:06:55.722Z,7.40
2023-01-31T14:09:26.921Z,7.40
2023-01-31T14:11:57.224Z,7.40
2023-01-31T14:14:39.908Z,7.50
2023-01-31T14:17:22.170Z,7.40
2023-01-31T14:19:49.554Z,7.50
2023-01-31T14:22:16.773Z,7.40
2023-01-31T14:24:50.127Z,7.40
2023-01-31T14:27:19.212Z,7.40
2023-01-31T14:29:49.086Z,7.50
2023-01-31T14:32:25.672Z,7.40
2023-01-31T14:34:52.796Z,7.50
2023-01-31T14:37:40.524Z,7.50
2023-01-31T14:40:25.788Z,7.40
2023-01-31T14:43:18.917Z,7.50
2023-01-31T14:46:15.195Z,7.40
2023-01-31T14:49:05.805Z,7.40
2023-01-31T14:51:44.877Z,7.40
2023-01-31T14:54:14.721Z,7.40
2023-01-31T14:57:25.887Z,7.30
2023-01-31T14:59:59.047Z,7.30
2023-01-31T15:02:32.505Z,7.30
2023-01-31T15:05:08.098Z,7.30
2023-01-31T15:07:35.317Z,7.30
2023-01-31T15:10:04.864Z,7.30
2023-01-31T15:13:00.809Z,7.30
2023-01-31T15:15:38.707Z,7.30
2023-01-31T15:18:19.371Z,7.30
2023-01-31T15:20:51.356Z,7.30
2023-01-31T15:23:24.450Z,7.30
2023-01-31T15:25:53.186Z,7.30
2023-01-31T15:28:28.553Z,7.30
2023-01-31T15:30:59.994Z,7.30
2023-01-31T15:33:32.487Z,7.20
2023-01-31T15:36:05.419Z,7.20
2023-01-31T15:38:56.859Z,7.20
2023-01-31T15:41:33.025Z,7.20
2023-01-31T15:44:22.232Z,7.20
2023-01-31T15:46:58.198Z,7.10
2023-01-31T15:49:38.956Z,7.20
2023-01-31T15:52:18.601Z,7.10
2023-01-31T15:54:59.756Z,7.10
2023-01-31T15:57:36.849Z,7.10
2023-01-31T16:00:04.516Z,7.10
2023-01-31T16:02:34.812Z,7.10
2023-01-31T16:05:06.827Z,7.10
2023-01-31T16:07:34.809Z,7.10
2023-01-31T16:10:02.354Z,7.00
2023-01-31T16:12:31.822Z,7.00
2023-01-31T16:15:06.081Z,7.00
2023-01-31T16:17:33.402Z,7.00
2023-01-31T16:20:00.442Z,7.00
2023-01-31T16:22:30.471Z,6.90
2023-01-31T16:25:03.671Z,6.90
2023-01-31T16:27:42.259Z,6.90
2023-01-31T16:30:14.848Z,6.90
2023-01-31T16:32:44.112Z,6.90
2023-01-31T16:35:26.893Z,6.90
2023-01-31T16:38:03.703Z,6.90
2023-01-31T16:40:53.903Z,6.90
2023-01-31T16:43:27.609Z,6.80
2023-01-31T16:46:01.983Z,6.80
2023-01-31T16:48:37.448Z,6.80
2023-01-31T16:51:28.342Z,6.80
2023-01-31T16:54:14.059Z,6.80
2023-01-31T16:56:41.241Z,6.70
2023-01-31T16:59:34.140Z,6.70
2023-01-31T17:02:08.599Z,6.70
2023-01-31T17:04:39.484Z,6.70
2023-01-31T17:07:14.163Z,6.70
2023-01-31T17:09:41.241Z,6.70
2023-01-31T17:12:24.756Z,6.70
2023-01-31T17:14:57.188Z,6.70
2023-01-31T17:17:29.767Z,6.60
2023-01-31T17:19:56.895Z,6.60
2023-01-31T17:22:24.070Z,6.60
2023-01-31T17:24:51.414Z,6.60
2023-01-31T17:27:19.427Z,6.60
2023-01-31T17:29:49.410Z,6.60
2023-01-31T17:32:19.290Z,6.60
2023-01-31T17:34:48.311Z,6.60
2023-01-31T17:37:20.862Z,6.70
2023-01-31T17:39:50.945Z,6.70
2023-01-31T17:42:21.315Z,6.70
2023-01-31T17:44:48.336Z,6.60
2023-01-31T17:47:15.505Z,6.60
2023-01-31T17:49:45.318Z,6.70
2023-01-31T17:52:15.149Z,6.60
2023-01-31T17:54:42.251Z,6.60
2023-01-31T17:57:09.298Z,6.60
2023-01-31T17:59:36.259Z,6.60
2023-01-31T18:02:03.567Z,6.60
2023-01-31T18:04:30.647Z,6.60
2023-01-31T18:06:57.580Z,6.60
2023-01-31T18:09:25.811Z,6.60
2023-01-31T18:11:52.995Z,6.60
2023-01-31T18:14:20.372Z,6.60
2023-01-31T18:16:50.747Z,6.60
2023-01-31T18:19:17.834Z,6.60
2023-01-31T18:21:54.312Z,6.60
2023-01-31T18:24:21.908Z,6.60
2023-01-31T18:26:49.373Z,6.60
2023-01-31T18:29:19.883Z,6.60
2023-01-31T18:31:50.185Z,6.60
2023-01-31T18:34:19.997Z,6.60
2023-01-31T18:36:47.076Z,6.60
2023-01-31T18:39:14.034Z,6.60
2023-01-31T18:41:41.084Z,6.60
2023-01-31T18:44:08.218Z,6.60
2023-01-31T18:46:35.162Z,6.50
2023-01-31T18:49:02.156Z,6.50
2023-01-31T18:51:29.246Z,6.60
2023-01-31T18:53:56.185Z,6.50
2023-01-31T18:56:23.850Z,6.60
2023-01-31T18:58:54.976Z,6.50
2023-01-31T19:01:24.334Z,6.50
2023-01-31T19:03:53.485Z,6.50
2023-01-31T19:06:22.984Z,6.50
2023-01-31T19:08:51.954Z,6.50
2023-01-31T19:11:20.992Z,6.50
2023-01-31T19:13:48.299Z,6.50
2023-01-31T19:16:20.651Z,6.50
2023-01-31T19:18:48.798Z,6.50
2023-01-31T19:21:24.578Z,6.50
2023-01-31T19:23:55.310Z,6.50
2023-01-31T19:26:22.588Z,6.50
2023-01-31T19:28:50.252Z,6.40
2023-01-31T19:31:20.204Z,6.50
2023-01-31T19:33:56.092Z,6.50
2023-01-31T19:36:25.794Z,6.50
2023-01-31T19:38:53.051Z,6.50
2023-01-31T19:41:22.170Z,6.40
2023-01-31T19:43:50.814Z,6.50
2023-01-31T19:46:18.052Z,6.40
2023-01-31T19:48:45.372Z,6.40
2023-01-31T19:51:15.477Z,6.40
2023-01-31T19:53:43.541Z,6.40
2023-01-31T19:56:10.892Z,6.40
2023-01-31T19:58:38.126Z,6.40
2023-01-31T20:01:07.807Z,6.40
2023-01-31T20:03:35.256Z,6.40
2023-01-31T20:06:05.143Z,6.40
2023-01-31T20:08:32.232Z,6.40
2023-01-31T20:10:59.287Z,6.40
2023-01-31T20:13:26.317Z,6.40
2023-01-31T20:16:08.065Z,6.40
2023-01-31T20:18:36.163Z,6.30
2023-01-31T20:21:03.443Z,6.40
2023-01-31T20:23:30.405Z,6.30
2023-01-31T20:25:57.887Z,6.40
2023-01-31T20:28:25.790Z,6.40
2023-01-31T20:30:53.341Z,6.40
2023-01-31T20:33:20.561Z,6.30
2023-01-31T20:35:47.701Z,6.30
2023-01-31T20:38:18.314Z,6.40
2023-01-31T20:40:53.266Z,6.40
2023-01-31T20:43:22.040Z,6.40
2023-01-31T20:45:49.531Z,6.40
2023-01-31T20:48:17.149Z,6.40
2023-01-31T20:50:44.926Z,6.40
2023-01-31T20:53:19.853Z,6.40
2023-01-31T20:56:04.366Z,6.40
2023-01-31T20:58:33.987Z,6.40
2023-01-31T21:01:04.816Z,6.40
2023-01-31T21:03:33.045Z,6.30
2023-01-31T21:06:01.026Z,6.40
2023-01-31T21:08:29.235Z,6.40
2023-01-31T21:10:58.177Z,6.40
2023-01-31T21:13:28.746Z,6.40
2023-01-31T21:16:00.685Z,6.40
2023-01-31T21:18:29.446Z,6.40
2023-01-31T21:20:56.642Z,6.40
2023-01-31T21:23:24.052Z,6.40
2023-01-31T21:25:50.975Z,6.40
2023-01-31T21:28:18.055Z,6.40
2023-01-31T21:30:45.175Z,6.40
2023-01-31T21:33:12.160Z,6.40
2023-01-31T21:35:39.157Z,6.40
2023-01-31T21:38:06.075Z,6.40
2023-01-31T21:40:33.019Z,6.40
2023-01-31T21:43:00.008Z,6.40
2023-01-31T21:45:42.025Z,6.40
2023-01-31T21:48:29.751Z,6.40
2023-01-31T21:50:57.804Z,6.40
2023-01-31T21:53:26.394Z,6.40
2023-01-31T21:56:12.697Z,6.40
2023-01-31T21:58:40.597Z,6.40
2023-01-31T22:01:11.519Z,6.40
2023-01-31T22:03:39.833Z,6.40
2023-01-31T22:06:09.222Z,6.40
2023-01-31T22:08:36.725Z,6.40
2023-01-31T22:11:14.758Z,6.40
2023-01-31T22:13:46.699Z,6.40
2023-01-31T22:16:15.485Z,6.30
2023-01-31T22:18:44.043Z,6.30
2023-01-31T22:21:34.911Z,6.30
2023-01-31T22:24:04.893Z,6.30
2023-01-31T22:26:34.986Z,6.30
2023-01-31T22:29:04.193Z,6.40
2023-01-31T22:31:32.430Z,6.30
2023-01-31T22:34:00.359Z,6.30
2023-01-31T22:36:27.768Z,6.30
2023-01-31T22:38:55.125Z,6.30
2023-01-31T22:41:22.434Z,6.40
2023-01-31T22:43:51.429Z,6.40
2023-01-31T22:46:21.408Z,6.40
2023-01-31T22:48:51.780Z,6.40
2023-01-31T22:51:21.917Z,6.40
2023-01-31T22:53:49.340Z,6.40
2023-01-31T22:56:27.937Z,6.40
2023-01-31T22:58:58.709Z,6.40
2023-01-31T23:01:28.433Z,6.40
2023-01-31T23:04:00.523Z,6.40
2023-01-31T23:06:29.166Z,6.40
2023-01-31T23:08:56.198Z,6.40
2023-01-31T23:11:24.467Z,6.40
2023-01-31T23:13:52.000Z,6.40
2023-01-31T23:16:21.994Z,6.40
2023-01-31T23:18:49.055Z,6.40
2023-01-31T23:21:18.637Z,6.40
2023-01-31T23:23:46.175Z,6.50
2023-01-31T23:26:14.061Z,6.50
2023-01-31T23:28:41.220Z,6.50
2023-01-31T23:31:08.456Z,6.50
2023-01-31T23:33:35.795Z,6.50
2023-01-31T23:36:03.039Z,6.50
2023-01-31T23:38:30.211Z,6.50
2023-01-31T23:40:57.272Z,6.50
2023-01-31T23:43:24.411Z,6.50
2023-01-31T23:45:51.519Z,6.50
2023-01-31T23:48:19.517Z,6.50
2023-01-31T23:50:46.610Z,6.50
2023-01-31T23:53:13.637Z,6.50
2023-01-31T23:55:40.651Z,6.50
2023-01-31T23:58:07.764Z,6.50
